Time;durP1;ratioP1;P1;durP2;ratioP2;P2;SDS_P1;SDS_P2;PMS_P1;PMS_P2;Temp;Humidity;BMP_temperature;BMP_pressure;BME280_temperature;BME280_humidity;BME280_pressure;Samples;Min_cycle;Max_cycle;Signal;HPM_P1;HPM_P2
2023/03/16 00:02:09;;;;;;;6.85;4.40;;;;;;;3.77;76.39;101774.19;5072826;28;20035;-81
2023/03/16 00:04:36;;;;;;;6.57;4.35;;;;;;;3.80;76.22;101774.22;5072542;28;20056;-81
2023/03/16 00:07:11;;;;;;;10.60;4.88;;;;;;;3.77;76.66;101761.06;5073508;28;20047;-82
2023/03/16 00:09:40;;;;;;;6.53;4.55;;;;;;;3.81;76.57;101760.31;5072499;28;20110;-82
2023/03/16 00:12:17;;;;;;;8.05;4.85;;;;;;;3.83;77.13;101756.84;5060159;28;20359;-81
2023/03/16 00:14:45;;;;;;;7.32;4.65;;;;;;;3.86;77.19;101756.03;5073761;28;20036;-81
2023/03/16 00:17:18;;;;;;;8.77;4.85;;;;;;;3.87;77.21;101755.16;5061518;28;20115;-82
2023/03/16 00:19:53;;;;;;;8.50;4.18;;;;;;;3.90;77.28;101749.09;5072848;28;20032;-81
2023/03/16 00:22:24;;;;;;;6.88;4.43;;;;;;;3.93;76.86;101751.78;5062966;28;20097;-81
2023/03/16 00:24:49;;;;;;;8.30;4.75;;;;;;;3.96;77.36;101755.38;5072581;28;20032;-81
2023/03/16 00:27:16;;;;;;;10.55;4.60;;;;;;;3.96;77.25;101747.50;5073655;28;20055;-82
2023/03/16 00:29:46;;;;;;;6.15;4.40;;;;;;;4.01;77.05;101739.72;5072473;28;20041;-81
2023/03/16 00:32:13;;;;;;;8.05;4.35;;;;;;;4.04;77.48;101740.66;5070620;28;20111;-82
2023/03/16 00:34:39;;;;;;;8.95;4.32;;;;;;;4.05;77.05;101739.78;5073092;28;20024;-82
2023/03/16 00:37:04;;;;;;;6.32;4.65;;;;;;;4.02;77.47;101731.88;5060431;28;20450;-82
2023/03/16 00:39:34;;;;;;;6.22;4.32;;;;;;;4.06;76.76;101733.72;5064751;28;20025;-81
2023/03/16 00:42:03;;;;;;;9.60;4.00;;;;;;;4.06;77.42;101731.09;5067768;28;20040;-82
2023/03/16 00:44:28;;;;;;;7.60;4.50;;;;;;;4.12;77.22;101732.94;5064776;28;20039;-82
2023/03/16 00:46:54;;;;;;;6.43;4.28;;;;;;;4.13;77.25;101728.56;5071467;28;20044;-82
2023/03/16 00:49:21;;;;;;;8.73;4.63;;;;;;;4.13;76.62;101720.72;5068100;28;20032;-81
2023/03/16 00:51:46;;;;;;;10.00;4.05;;;;;;;4.12;77.16;101719.84;5069992;28;20094;-82
2023/03/16 00:54:12;;;;;;;8.23;4.00;;;;;;;4.13;77.07;101713.75;5064315;28;20424;-82
2023/03/16 00:56:37;;;;;;;7.05;4.38;;;;;;;4.12;77.17;101706.72;5005826;28;20124;-82
2023/03/16 00:59:04;;;;;;;7.55;4.43;;;;;;;4.15;77.17;101711.13;5036185;28;20471;-82
2023/03/16 01:01:31;;;;;;;6.70;4.70;;;;;;;4.18;76.94;101709.47;5057982;28;20028;-82
2023/03/16 01:03:58;;;;;;;10.98;4.38;;;;;;;4.19;77.17;101707.72;5068987;28;20119;-82
2023/03/16 01:06:24;;;;;;;6.13;4.30;;;;;;;4.17;77.34;101697.22;5064606;28;20045;-81
2023/03/16 01:08:51;;;;;;;9.43;3.97;;;;;;;4.16;77.47;101692.84;5049586;28;20459;-82
2023/03/16 01:11:21;;;;;;;6.85;4.38;;;;;;;4.14;77.87;101686.66;5068373;28;20033;-82
2023/03/16 01:13:53;;;;;;;7.75;4.18;;;;;;;4.14;77.11;101685.78;5064756;28;20028;-82
2023/03/16 01:16:18;;;;;;;7.50;4.28;;;;;;;4.17;77.06;101675.34;5039265;28;20048;-82
2023/03/16 01:18:45;;;;;;;10.25;4.75;;;;;;;4.18;77.77;101679.72;5059179;28;20025;-82
2023/03/16 01:21:12;;;;;;;11.40;4.78;;;;;;;4.17;77.34;101668.38;5053563;28;20143;-82
2023/03/16 01:23:38;;;;;;;6.38;4.15;;;;;;;4.17;77.80;101664.88;5054322;28;20029;-82
2023/03/16 01:26:04;;;;;;;7.72;4.00;;;;;;;4.18;77.49;101662.28;5060827;28;20036;-82
2023/03/16 01:28:31;;;;;;;12.07;4.40;;;;;;;4.15;77.55;101669.19;5069239;28;20032;-81
2023/03/16 01:31:15;;;;;;;7.22;4.13;;;;;;;4.13;77.90;101663.94;5069692;28;20482;-81
2023/03/16 01:33:42;;;;;;;6.38;4.38;;;;;;;4.14;78.06;101655.22;5066820;28;20484;-81
2023/03/16 01:36:16;;;;;;;8.23;4.50;;;;;;;4.15;77.67;101658.72;5065576;28;20139;-82
2023/03/16 01:38:55;;;;;;;8.05;4.90;;;;;;;4.16;77.90;101666.63;5064037;28;20586;-82
2023/03/16 01:41:25;;;;;;;9.23;4.38;;;;;;;4.14;78.31;101656.97;5059123;28;20066;-82
2023/03/16 01:43:57;;;;;;;7.78;4.50;;;;;;;4.16;77.79;101657.88;5074324;28;20033;-81
2023/03/16 01:46:27;;;;;;;8.98;4.72;;;;;;;4.16;78.06;101655.25;5072380;28;20033;-82
2023/03/16 01:49:26;;;;;;;10.48;4.75;;;;;;;4.18;77.58;101649.19;5070233;28;20132;-82
2023/03/16 01:51:59;;;;;;;6.78;4.13;;;;;;;4.19;77.86;101653.56;5043183;28;20130;-82
2023/03/16 01:54:32;;;;;;;9.85;4.50;;;;;;;4.19;78.01;101655.31;5063296;28;20037;-82
2023/03/16 01:57:12;;;;;;;9.15;4.90;;;;;;;4.21;77.75;101650.97;5066615;28;20025;-82
2023/03/16 01:59:48;;;;;;;7.00;4.53;;;;;;;4.20;77.92;101650.06;5060078;28;20028;-82
2023/03/16 02:02:20;;;;;;;9.32;4.55;;;;;;;4.23;78.05;101651.88;5043593;28;20033;-82
2023/03/16 02:04:51;;;;;;;12.48;4.70;;;;;;;4.24;77.70;101641.41;5057519;28;20044;-81
2023/03/16 02:07:23;;;;;;;8.82;4.57;;;;;;;4.21;77.98;101635.25;5055255;28;20033;-81
2023/03/16 02:09:52;;;;;;;;;;;;;;;4.24;77.11;101632.66;5071732;28;20132;-82
2023/03/16 02:12:20;;;;;;;7.75;4.35;;;;;;;4.20;77.89;101633.47;5053111;28;19917;-82
2023/03/16 02:14:51;;;;;;;6.97;5.00;;;;;;;4.18;78.23;101622.06;5035838;28;20174;-82
2023/03/16 02:17:24;;;;;;;7.43;4.47;;;;;;;4.18;78.13;101628.22;5069061;28;20085;-82
2023/03/16 02:20:03;;;;;;;9.60;4.32;;;;;;;4.21;77.87;101623.00;5071684;28;20331;-82
2023/03/16 02:22:34;;;;;;;7.72;4.38;;;;;;;4.18;78.84;101604.63;5070300;28;20070;-81
2023/03/16 02:25:01;;;;;;;6.88;4.20;;;;;;;4.14;78.98;101610.66;5066052;28;20059;-82
2023/03/16 02:27:50;;;;;;;8.43;4.45;;;;;;;4.18;80.02;101617.72;5047537;28;20029;-82
2023/03/16 02:30:18;;;;;;;12.02;4.80;;;;;;;4.16;80.88;101614.19;5067182;28;20051;-81
2023/03/16 02:33:00;;;;;;;12.18;5.72;;;;;;;4.13;80.56;101608.91;5061604;28;20033;-82
2023/03/16 02:35:26;;;;;;;6.97;4.20;;;;;;;4.13;81.48;101606.28;5066414;28;20036;-82
2023/03/16 02:37:51;;;;;;;9.10;5.65;;;;;;;4.12;81.15;101606.25;5049493;28;20033;-82
2023/03/16 02:40:25;;;;;;;8.65;4.75;;;;;;;4.12;82.19;101621.97;5051190;28;20174;-82
2023/03/16 02:43:08;;;;;;;7.18;4.30;;;;;;;4.11;81.79;101617.59;5052637;28;20029;-82
2023/03/16 02:45:44;;;;;;;6.20;4.32;;;;;;;4.08;82.53;101616.69;5057019;28;20496;-81
2023/03/16 02:48:21;;;;;;;9.73;4.85;;;;;;;4.05;83.06;101613.09;5067017;28;20069;-81
2023/03/16 02:50:50;;;;;;;7.10;4.38;;;;;;;4.05;83.06;101613.09;5056718;28;20488;-81
2023/03/16 02:53:16;;;;;;;7.57;4.25;;;;;;;4.06;83.34;101613.16;5056172;28;20037;-82
2023/03/16 02:55:42;;;;;;;6.95;4.60;;;;;;;4.05;83.21;101613.09;5069107;28;20024;-81
2023/03/16 02:58:07;;;;;;;7.93;5.20;;;;;;;4.01;83.62;101614.81;5068554;28;20463;-82
2023/03/16 03:00:33;;;;;;;11.73;5.55;;;;;;;4.03;83.57;101605.25;5065560;28;20032;-81
2023/03/16 03:02:58;;;;;;;7.28;4.30;;;;;;;4.04;83.22;101604.38;5070175;28;20105;-81
2023/03/16 03:05:24;;;;;;;8.35;4.90;;;;;;;4.02;83.66;101610.44;5074059;28;20395;-81
2023/03/16 03:07:50;;;;;;;9.93;4.80;;;;;;;3.99;83.68;101597.28;5037502;28;20467;-81
2023/03/16 03:10:16;;;;;;;9.13;4.55;;;;;;;4.00;84.29;101597.28;5054160;28;20174;-81
2023/03/16 03:12:41;;;;;;;8.82;4.90;;;;;;;3.98;83.77;101592.88;5075159;28;20448;-81
2023/03/16 03:15:09;;;;;;;6.90;4.57;;;;;;;3.98;84.05;101596.41;5040926;28;20033;-81
2023/03/16 03:17:45;;;;;;;8.00;4.65;;;;;;;4.02;83.95;101602.56;5073941;28;20078;-81
2023/03/16 03:20:16;;;;;;;10.82;4.30;;;;;;;4.01;84.05;101600.81;5073716;28;20098;-82
2023/03/16 03:22:44;;;;;;;11.80;4.63;;;;;;;4.00;83.69;101591.19;5072427;28;20033;-81
2023/03/16 03:25:10;;;;;;;10.85;4.78;;;;;;;4.03;83.88;101591.22;5073491;28;20089;-81
2023/03/16 03:27:36;;;;;;;7.97;4.80;;;;;;;3.99;84.32;101584.19;5074630;28;20036;-80
2023/03/16 03:30:05;;;;;;;7.30;4.32;;;;;;;4.00;84.63;101588.56;5073486;28;20123;-81
2023/03/16 03:32:31;;;;;;;7.55;4.45;;;;;;;4.00;84.22;101585.94;5072387;28;20383;-81
2023/03/16 03:34:57;;;;;;;9.02;5.13;;;;;;;4.00;84.26;101580.69;5056900;28;20023;-82
2023/03/16 03:37:23;;;;;;;7.10;4.57;;;;;;;3.99;84.35;101579.81;5056832;28;20135;-82
2023/03/16 03:39:49;;;;;;;6.82;4.68;;;;;;;4.00;83.85;101573.72;5073173;28;20103;-82
2023/03/16 03:42:16;;;;;;;6.43;4.40;;;;;;;3.99;84.43;101578.94;5053222;28;20044;-82
2023/03/16 03:44:41;;;;;;;7.18;4.32;;;;;;;3.98;84.21;101580.69;5073024;28;20423;-82
2023/03/16 03:47:07;;;;;;;6.85;4.25;;;;;;;3.97;84.17;101576.28;5072920;28;20040;-81
2023/03/16 03:49:32;;;;;;;6.15;4.30;;;;;;;3.96;84.76;101578.91;5074491;28;20121;-82
2023/03/16 03:52:00;;;;;;;11.77;4.30;;;;;;;3.95;84.17;101585.84;5072784;28;20094;-82
2023/03/16 03:54:26;;;;;;;10.40;4.85;;;;;;;3.95;84.22;101579.75;5074387;28;20032;-82
2023/03/16 03:56:56;;;;;;;6.65;4.40;;;;;;;3.93;84.80;101570.97;5073101;28;20063;-82
2023/03/16 03:59:22;;;;;;;7.70;4.07;;;;;;;3.94;84.47;101573.63;5039724;28;20124;-82
2023/03/16 04:02:14;;;;;;;7.68;4.50;;;;;;;3.93;84.58;101568.34;5057792;28;20047;-82
2023/03/16 04:04:50;;;;;;;8.50;3.97;;;;;;;3.91;84.71;101564.81;5072784;28;20174;-81
2023/03/16 04:07:16;;;;;;;8.77;4.57;;;;;;;3.91;84.56;101556.94;5051171;28;20072;-82
2023/03/16 04:09:43;;;;;;;5.07;3.55;;;;;;;3.90;84.68;101553.44;5060988;28;20391;-82
2023/03/16 04:12:16;;;;;;;6.80;3.95;;;;;;;3.89;84.21;101556.94;5089391;28;20562;-82
2023/03/16 04:14:42;;;;;;;7.75;4.43;;;;;;;3.90;84.74;101566.56;5072983;28;20116;-82
2023/03/16 04:17:08;;;;;;;9.52;4.53;;;;;;;3.89;85.09;101564.81;5068203;28;20040;-82
2023/03/16 04:19:36;;;;;;;8.23;4.18;;;;;;;3.91;85.39;101556.94;5056507;28;20089;-81
2023/03/16 04:22:07;;;;;;;8.68;3.95;;;;;;;3.90;85.03;101557.81;5072215;28;20040;-82
2023/03/16 04:24:33;;;;;;;9.70;4.32;;;;;;;3.90;84.88;101549.97;5055898;28;20075;-82
2023/03/16 04:27:01;;;;;;;5.65;3.70;;;;;;;3.88;84.71;101542.97;5062435;28;20032;-82
2023/03/16 04:29:27;;;;;;;6.07;4.05;;;;;;;3.91;85.20;101550.00;5072078;28;20056;-82
2023/03/16 04:31:55;;;;;;;6.50;4.00;;;;;;;3.92;84.73;101548.25;5070461;28;20463;-82
2023/03/16 04:34:23;;;;;;;8.25;3.83;;;;;;;3.90;84.90;101540.34;5071736;28;20140;-82
2023/03/16 04:36:53;;;;;;;6.40;4.03;;;;;;;3.90;85.34;101540.34;5072599;28;20078;-82
2023/03/16 04:39:20;;;;;;;9.60;4.20;;;;;;;3.91;84.75;101544.75;5071910;28;20052;-82
2023/03/16 04:41:48;;;;;;;7.15;4.20;;;;;;;3.88;84.97;101540.34;5072146;28;20024;-82
2023/03/16 04:44:19;;;;;;;8.32;4.38;;;;;;;3.92;84.74;101549.13;5052811;28;20099;-82
2023/03/16 04:46:44;;;;;;;9.20;4.20;;;;;;;3.92;84.57;101540.38;5070474;28;20486;-82
2023/03/16 04:49:11;;;;;;;7.43;3.90;;;;;;;3.93;84.69;101545.66;5072395;28;20017;-82
2023/03/16 04:51:39;;;;;;;8.93;3.90;;;;;;;3.97;84.60;101543.97;5055553;28;20133;-82
2023/03/16 04:54:14;;;;;;;7.95;4.20;;;;;;;3.96;84.82;101547.47;5072388;28;20364;-82
2023/03/16 04:56:42;;;;;;;6.22;3.70;;;;;;;3.96;85.04;101543.09;5042365;28;20446;-82
2023/03/16 04:59:16;;;;;;;9.07;4.03;;;;;;;3.95;84.77;101546.53;5052071;28;20171;-82
2023/03/16 05:01:51;;;;;;;8.15;4.03;;;;;;;3.98;84.91;101545.72;5056488;28;20047;-81
2023/03/16 05:04:16;;;;;;;9.63;3.75;;;;;;;3.96;84.89;101537.84;5072267;28;20036;-82
2023/03/16 05:06:42;;;;;;;6.28;3.75;;;;;;;4.00;85.47;101536.16;5072112;28;20036;-82
2023/03/16 05:09:10;;;;;;;8.27;3.80;;;;;;;3.98;85.62;101530.91;5071870;28;20127;-82
2023/03/16 05:11:37;;;;;;;6.32;3.75;;;;;;;3.98;85.86;101530.00;5071634;28;20055;-82
2023/03/16 05:14:06;;;;;;;6.05;3.78;;;;;;;3.95;86.32;101520.34;5055356;28;20040;-82
2023/03/16 05:16:38;;;;;;;9.20;3.80;;;;;;;3.97;86.07;101523.88;5056144;28;20428;-82
2023/03/16 05:19:04;;;;;;;8.63;4.10;;;;;;;3.98;86.07;101522.13;5054970;28;20112;-82
2023/03/16 05:21:33;;;;;;;7.05;4.00;;;;;;;3.95;86.07;101524.72;5068000;28;20028;-82
2023/03/16 05:24:04;;;;;;;5.63;3.63;;;;;;;3.97;86.11;101520.38;5067998;28;20131;-82
2023/03/16 05:26:30;;;;;;;7.63;3.92;;;;;;;3.96;86.57;101519.50;5071211;28;20132;-82
2023/03/16 05:28:57;;;;;;;6.28;3.55;;;;;;;3.95;86.46;101516.84;5054086;28;20105;-81
2023/03/16 05:31:31;;;;;;;7.50;3.63;;;;;;;3.95;86.49;101522.97;5054390;28;20027;-81
2023/03/16 05:33:58;;;;;;;6.60;3.60;;;;;;;3.95;86.74;101525.59;5071461;28;20086;-81
2023/03/16 05:36:24;;;;;;;6.30;3.58;;;;;;;3.93;86.50;101522.09;5054221;28;20027;-82
2023/03/16 05:38:53;;;;;;;9.38;3.72;;;;;;;3.96;86.41;101522.13;5071239;28;20036;-82
2023/03/16 05:41:27;;;;;;;7.78;3.80;;;;;;;3.96;86.88;101518.63;5070947;28;20111;-82
2023/03/16 05:43:52;;;;;;;5.95;3.50;;;;;;;3.97;87.08;101513.41;5054614;28;20135;-81
2023/03/16 05:46:20;;;;;;;7.63;3.75;;;;;;;3.97;87.45;101504.66;5070940;28;20029;-82
2023/03/16 05:48:45;;;;;;;8.55;3.65;;;;;;;3.97;87.89;101499.41;5070568;28;20032;-81
2023/03/16 05:51:13;;;;;;;8.13;3.53;;;;;;;4.00;88.20;101502.06;5071832;28;20021;-82
2023/03/16 05:53:40;;;;;;;6.57;3.75;;;;;;;3.99;88.31;101506.44;5054150;28;20055;-82
2023/03/16 05:56:14;;;;;;;7.38;3.40;;;;;;;3.96;88.13;101490.69;5070920;28;20047;-81
2023/03/16 05:58:42;;;;;;;11.50;3.50;;;;;;;3.99;87.89;101498.56;5051003;28;20041;-81
2023/03/16 06:01:10;;;;;;;6.57;3.58;;;;;;;3.99;87.98;101502.94;5070857;28;20031;-81
2023/03/16 06:03:35;;;;;;;7.50;4.28;;;;;;;3.98;88.21;101494.22;5070747;28;20124;-81
2023/03/16 06:06:01;;;;;;;7.25;3.35;;;;;;;3.96;88.15;101495.03;5054205;28;20390;-80
2023/03/16 06:08:31;;;;;;;8.52;3.90;;;;;;;4.02;88.10;101492.50;5070551;28;20040;-81
2023/03/16 06:11:05;;;;;;;7.93;3.78;;;;;;;4.00;88.42;101499.44;5070489;28;20471;-81
2023/03/16 06:13:31;;;;;;;10.38;4.22;;;;;;;3.98;89.05;101501.16;5053900;28;20140;-81
2023/03/16 06:15:56;;;;;;;9.60;3.90;;;;;;;3.98;88.94;101501.16;5053843;28;20032;-82
2023/03/16 06:18:22;;;;;;;6.70;4.22;;;;;;;4.02;88.59;101497.75;5070513;28;20073;-82
2023/03/16 06:20:48;;;;;;;6.88;4.00;;;;;;;4.03;88.49;101503.03;5067140;28;20057;-81
2023/03/16 06:23:14;;;;;;;9.30;3.80;;;;;;;4.02;87.96;101500.38;5061024;28;20119;-81
2023/03/16 06:25:40;;;;;;;10.30;3.60;;;;;;;4.01;88.42;101499.50;5068837;28;20105;-82
2023/03/16 06:28:06;;;;;;;7.07;3.85;;;;;;;4.00;87.91;101495.09;5070315;28;20387;-81
2023/03/16 06:30:32;;;;;;;5.10;3.60;;;;;;;4.05;87.90;101495.16;5054173;28;20028;-82
2023/03/16 06:32:59;;;;;;;7.47;3.75;;;;;;;4.04;88.33;101503.91;5069105;28;20040;-82
2023/03/16 06:35:25;;;;;;;6.38;3.90;;;;;;;4.06;88.35;101500.44;5053056;28;20103;-82
2023/03/16 06:38:05;;;;;;;11.15;5.85;;;;;;;4.10;88.57;101503.97;5059462;28;20040;-81
2023/03/16 06:40:52;;;;;;;8.40;4.30;;;;;;;4.09;89.49;101505.72;5051692;28;20037;-81
2023/03/16 06:43:20;;;;;;;6.32;4.50;;;;;;;4.09;89.04;101495.25;5056671;28;20047;-82
2023/03/16 06:45:45;;;;;;;11.07;4.05;;;;;;;4.11;88.98;101497.03;5049740;28;20025;-82
2023/03/16 06:48:11;;;;;;;6.93;3.53;;;;;;;4.14;89.35;101503.19;5065188;28;20040;-82
2023/03/16 06:50:37;;;;;;;7.82;4.13;;;;;;;4.15;89.26;101494.44;5049988;28;20144;-81
2023/03/16 06:53:03;;;;;;;7.65;4.15;;;;;;;4.17;89.24;101486.59;5064331;28;20454;-81
2023/03/16 06:55:30;;;;;;;7.30;4.00;;;;;;;4.17;89.63;101482.25;5037821;28;20059;-81
2023/03/16 06:57:56;;;;;;;11.85;4.15;;;;;;;4.18;89.54;101486.66;5070101;28;20083;-81
2023/03/16 07:00:23;;;;;;;7.80;3.83;;;;;;;4.18;89.52;101484.03;5069365;28;20123;-82
2023/03/16 07:02:49;;;;;;;7.30;4.32;;;;;;;4.23;90.34;101489.34;5049892;28;20059;-82
2023/03/16 07:05:15;;;;;;;8.98;4.00;;;;;;;4.26;89.61;101484.13;5055720;28;20032;-81
2023/03/16 07:07:42;;;;;;;8.98;4.05;;;;;;;4.34;90.02;101481.63;5051948;28;20037;-81
2023/03/16 07:10:10;;;;;;;12.88;4.57;;;;;;;4.36;90.09;101478.16;5052926;28;20139;-81
2023/03/16 07:12:36;;;;;;;11.23;5.30;;;;;;;4.39;89.79;101475.56;5069796;28;20079;-81
2023/03/16 07:15:02;;;;;;;7.97;3.95;;;;;;;4.43;89.98;101477.38;5064707;28;20028;-81
2023/03/16 07:17:28;;;;;;;10.60;3.72;;;;;;;4.46;90.07;101476.53;5034774;28;20048;-82
2023/03/16 07:19:54;;;;;;;9.68;3.88;;;;;;;4.50;90.30;101475.69;5065165;28;20032;-82
2023/03/16 07:22:20;;;;;;;6.85;4.38;;;;;;;4.51;89.70;101475.72;5069655;28;20105;-82
2023/03/16 07:24:50;;;;;;;6.85;3.67;;;;;;;4.55;89.39;101470.50;5068836;28;20495;-81
2023/03/16 07:27:16;;;;;;;12.65;3.55;;;;;;;4.57;89.48;101474.03;5069382;28;20037;-81
2023/03/16 07:29:43;;;;;;;6.22;3.67;;;;;;;4.60;89.98;101463.59;5053147;28;20021;-81
2023/03/16 07:32:10;;;;;;;8.57;3.75;;;;;;;4.62;88.97;101468.00;5068603;28;20472;-81
2023/03/16 07:34:37;;;;;;;8.25;3.72;;;;;;;4.65;89.85;101465.44;5069371;28;20039;-81
2023/03/16 07:37:03;;;;;;;9.00;3.97;;;;;;;4.69;89.05;101463.72;5070944;28;20045;-81
2023/03/16 07:39:30;;;;;;;7.13;3.70;;;;;;;4.72;89.82;101455.88;5035672;28;20028;-82
2023/03/16 07:42:03;;;;;;;7.13;3.97;;;;;;;4.76;88.73;101455.06;5060837;28;20045;-81
2023/03/16 07:44:37;;;;;;;13.98;4.65;;;;;;;4.76;88.76;101456.81;5069288;28;20037;-82
2023/03/16 07:47:03;;;;;;;9.10;3.63;;;;;;;4.74;89.25;101448.91;5054629;28;20128;-82
2023/03/16 07:49:30;;;;;;;8.82;3.85;;;;;;;4.78;89.02;101463.81;5039773;28;20039;-82
2023/03/16 07:51:57;;;;;;;8.30;3.85;;;;;;;4.82;88.18;101463.00;5060009;28;20032;-81
2023/03/16 07:54:30;;;;;;;5.80;3.45;;;;;;;4.87;88.30;101465.66;5041944;28;20156;-82
2023/03/16 07:56:56;;;;;;;8.32;3.67;;;;;;;4.91;87.81;101457.84;5073087;28;20164;-73
2023/03/16 07:59:30;;;;;;;11.23;4.07;;;;;;;4.92;87.99;101450.84;5072633;28;20044;-73
2023/03/16 08:01:56;;;;;;;7.03;3.88;;;;;;;4.99;88.48;101457.94;5072900;28;20107;-73
2023/03/16 08:04:22;;;;;;;6.72;3.35;;;;;;;5.02;88.08;101455.34;5072781;28;20039;-73
2023/03/16 08:06:58;;;;;;;10.98;3.60;;;;;;;5.07;87.47;101455.38;5059697;28;20058;-73
2023/03/16 08:09:26;;;;;;;10.32;4.07;;;;;;;5.14;86.74;101457.22;5057973;28;20048;-73
2023/03/16 08:11:53;;;;;;;8.65;3.58;;;;;;;5.18;87.33;101461.63;5072371;28;20410;-74
2023/03/16 08:14:18;;;;;;;8.07;4.50;;;;;;;5.21;86.28;101455.53;5072970;28;20043;-74
2023/03/16 08:16:56;;;;;;;11.38;3.97;;;;;;;5.28;85.69;101449.47;5072625;28;20481;-73
2023/03/16 08:19:24;;;;;;;8.65;4.28;;;;;;;5.33;85.40;101453.91;5072879;28;20099;-73
2023/03/16 08:21:50;;;;;;;5.82;3.75;;;;;;;5.37;85.48;101457.47;5056092;28;20114;-73
2023/03/16 08:24:16;;;;;;;8.25;4.18;;;;;;;5.41;84.59;101453.09;5072752;28;20523;-73
2023/03/16 08:26:42;;;;;;;6.75;3.22;;;;;;;5.46;84.49;101456.66;5074004;28;20199;-73
2023/03/16 08:29:07;;;;;;;5.70;3.63;;;;;;;5.49;83.75;101457.56;5072659;28;20028;-73
2023/03/16 08:31:36;;;;;;;8.90;3.50;;;;;;;5.54;82.52;101463.75;5070609;28;20098;-74
2023/03/16 08:34:08;;;;;;;6.10;3.83;;;;;;;5.57;82.22;101468.13;5072496;28;20929;-73
2023/03/16 08:36:42;;;;;;;8.23;3.75;;;;;;;5.61;81.63;101464.66;5072600;28;20455;-73
2023/03/16 08:39:09;;;;;;;7.28;3.60;;;;;;;5.68;81.12;101468.22;5055817;28;20036;-73
2023/03/16 08:41:40;;;;;;;12.30;4.33;;;;;;;5.72;81.36;101463.00;5072916;28;20101;-73
2023/03/16 08:44:11;;;;;;;9.60;3.40;;;;;;;5.75;80.12;101457.78;5056303;28;20046;-74
2023/03/16 08:46:38;;;;;;;12.68;3.83;;;;;;;5.81;80.03;101456.94;5072089;28;20071;-73
2023/03/16 08:49:05;;;;;;;8.50;3.78;;;;;;;5.87;80.66;101459.63;5055815;28;20048;-74
2023/03/16 08:51:32;;;;;;;7.90;3.88;;;;;;;5.96;80.19;101462.34;5041342;28;20436;-74
2023/03/16 08:53:58;;;;;;;10.35;4.35;;;;;;;6.04;78.89;101451.88;5072410;28;20028;-73
2023/03/16 08:56:24;;;;;;;8.63;3.95;;;;;;;6.09;78.71;101454.56;5072165;28;20047;-74
2023/03/16 08:58:50;;;;;;;4.90;3.50;;;;;;;6.12;78.89;101441.41;5071159;28;20032;-73
2023/03/16 09:01:17;;;;;;;6.53;3.70;;;;;;;6.13;78.36;101446.69;5072273;28;20131;-73
2023/03/16 09:03:45;;;;;;;9.02;3.95;;;;;;;6.16;78.49;101444.06;5055245;28;20429;-74
2023/03/16 09:06:12;;;;;;;8.52;3.80;;;;;;;6.19;78.36;101444.09;5073394;28;20033;-74
2023/03/16 09:08:39;;;;;;;10.52;3.60;;;;;;;6.20;78.71;101435.31;5071764;28;20050;-74
2023/03/16 09:11:13;;;;;;;6.78;3.88;;;;;;;6.28;77.95;101430.13;5071817;28;20052;-74
2023/03/16 09:13:40;;;;;;;9.20;3.63;;;;;;;6.34;78.06;101431.91;5073105;28;20036;-74
2023/03/16 09:16:07;;;;;;;10.70;3.60;;;;;;;6.41;75.89;101437.19;5073258;28;20023;-73
2023/03/16 09:18:34;;;;;;;7.88;3.45;;;;;;;6.44;77.01;101428.44;5073014;28;20040;-74
2023/03/16 09:21:02;;;;;;;10.82;4.05;;;;;;;6.50;77.61;101428.44;5072718;28;20056;-74
2023/03/16 09:23:28;;;;;;;8.65;3.63;;;;;;;6.57;77.43;101432.00;5073002;28;20044;-74
2023/03/16 09:25:59;;;;;;;5.72;3.45;;;;;;;6.65;77.00;101425.91;5071312;28;20100;-74
2023/03/16 09:28:28;;;;;;;7.78;3.58;;;;;;;6.77;76.46;101427.66;5072786;28;20032;-74
2023/03/16 09:30:55;;;;;;;6.38;3.60;;;;;;;6.92;76.38;101426.84;5072704;28;20378;-74
2023/03/16 09:33:21;;;;;;;7.78;3.63;;;;;;;7.06;75.51;101418.97;5071725;28;20062;-74
2023/03/16 09:35:48;;;;;;;7.78;3.33;;;;;;;7.17;74.16;101421.63;5064742;28;20127;-73
2023/03/16 09:38:13;;;;;;;7.57;3.35;;;;;;;7.25;72.80;101415.50;5071110;28;20055;-74
2023/03/16 09:40:40;;;;;;;5.15;3.08;;;;;;;7.35;72.71;101413.75;5072730;28;20024;-73
2023/03/16 09:43:24;;;;;;;7.05;3.28;;;;;;;7.45;74.25;101420.78;5071157;28;20083;-73
2023/03/16 09:46:04;;;;;;;9.20;3.38;;;;;;;7.51;72.80;101423.41;5066734;28;20025;-73
2023/03/16 09:48:32;;;;;;;10.48;3.47;;;;;;;7.54;71.82;101422.50;5062627;28;20467;-73
2023/03/16 09:51:01;;;;;;;5.80;2.97;;;;;;;7.60;69.39;101414.63;5064965;28;20052;-73
2023/03/16 09:53:30;;;;;;;6.00;2.85;;;;;;;7.73;69.42;101415.50;5054357;28;20178;-73
2023/03/16 09:56:15;;;;;;;6.35;3.20;;;;;;;7.82;70.30;101423.41;5054477;28;20100;-73
2023/03/16 09:58:41;;;;;;;4.50;2.80;;;;;;;7.99;68.06;101415.47;5062683;28;20024;-74
2023/03/16 10:01:15;;;;;;;6.75;2.67;;;;;;;8.07;68.32;101408.41;5072109;28;20021;-73
2023/03/16 10:03:57;;;;;;;8.82;2.97;;;;;;;8.16;67.90;101396.97;5071051;28;20036;-73
2023/03/16 10:06:25;;;;;;;7.65;3.00;;;;;;;8.19;65.52;101400.47;5059253;28;20044;-73
2023/03/16 10:09:12;;;;;;;5.68;2.83;;;;;;;8.17;66.76;101406.63;5057150;28;20021;-73
2023/03/16 10:11:48;;;;;;;5.13;2.65;;;;;;;8.34;66.89;101393.38;5064477;28;20056;-73
2023/03/16 10:14:39;;;;;;;7.07;3.00;;;;;;;8.59;67.55;101386.25;5070100;28;20032;-73
2023/03/16 10:17:16;;;;;;;3.78;2.38;;;;;;;8.86;64.47;101384.34;5054253;28;20029;-73
2023/03/16 10:19:47;;;;;;;5.82;2.05;;;;;;;9.05;63.35;101370.16;5067045;28;20478;-73
2023/03/16 10:22:21;;;;;;;6.35;2.65;;;;;;;9.08;61.92;101385.09;5070339;28;20040;-73
2023/03/16 10:25:02;;;;;;;5.68;2.50;;;;;;;9.11;64.49;101385.94;5070434;28;20028;-73
2023/03/16 10:27:33;;;;;;;4.13;2.30;;;;;;;9.19;62.54;101376.19;5070326;28;20033;-73
2023/03/16 10:30:01;;;;;;;5.32;2.40;;;;;;;9.23;61.95;101379.69;5057857;28;20021;-74
2023/03/16 10:32:33;;;;;;;3.50;2.20;;;;;;;9.39;60.93;101381.31;5069276;28;20040;-74
2023/03/16 10:35:17;;;;;;;5.65;2.55;;;;;;;9.59;62.19;101373.19;5071453;28;20099;-73
2023/03/16 10:37:42;;;;;;;5.68;2.20;;;;;;;9.73;60.94;101375.72;5071659;28;20043;-74
2023/03/16 10:40:11;;;;;;;6.00;2.28;;;;;;;9.94;60.76;101373.75;5045205;28;20025;-74
2023/03/16 10:42:37;;;;;;;6.68;2.38;;;;;;;10.06;59.06;101361.28;5053759;28;20568;-74
2023/03/16 10:45:03;;;;;;;9.55;2.60;;;;;;;10.16;59.32;101361.16;5071201;28;20151;-73
2023/03/16 10:47:32;;;;;;;4.65;2.13;;;;;;;10.31;58.25;101366.28;5053527;28;20128;-73
2023/03/16 10:50:11;;;;;;;4.57;2.05;;;;;;;10.51;57.45;101363.41;5070008;28;20036;-74
2023/03/16 10:52:43;;;;;;;8.40;2.67;;;;;;;10.55;56.65;101349.22;5061819;28;20066;-73
2023/03/16 10:55:21;;;;;;;5.63;2.30;;;;;;;10.72;55.97;101359.56;5071444;28;20040;-73
2023/03/16 10:57:53;;;;;;;9.00;2.80;;;;;;;10.69;54.93;101346.38;5062190;28;20029;-73
2023/03/16 11:00:29;;;;;;;4.25;2.10;;;;;;;10.75;56.66;101346.28;5069620;28;20037;-73
2023/03/16 11:02:58;;;;;;;6.10;2.28;;;;;;;10.73;53.70;101341.03;5069513;28;20425;-73
2023/03/16 11:05:31;;;;;;;5.03;2.00;;;;;;;10.76;56.77;101334.81;5053296;28;20466;-73
2023/03/16 11:08:22;;;;;;;3.70;1.85;;;;;;;10.84;55.68;101340.00;5069901;28;20379;-73
2023/03/16 11:11:01;;;;;;;6.55;2.10;;;;;;;10.87;54.85;101321.38;5063007;28;20439;-73
2023/03/16 11:13:36;;;;;;;4.45;2.10;;;;;;;10.85;54.19;101326.69;5070862;28;20040;-74
2023/03/16 11:16:27;;;;;;;7.25;2.13;;;;;;;10.90;54.10;101329.28;5069577;28;20096;-74
2023/03/16 11:18:57;;;;;;;;;;;;;;;10.95;56.03;101314.19;5071448;28;20028;-74
2023/03/16 11:21:35;;;;;;;5.30;2.30;;;;;;;10.97;55.13;101317.69;5070285;28;20003;-74
2023/03/16 11:24:03;;;;;;;7.13;2.20;;;;;;;11.00;54.27;101306.16;5074617;28;20089;-73
2023/03/16 11:26:34;;;;;;;5.28;2.00;;;;;;;11.01;52.63;101299.97;5074904;28;20024;-74
2023/03/16 11:29:27;;;;;;;5.97;2.05;;;;;;;11.06;54.88;101306.06;5073626;28;20036;-74
2023/03/16 11:32:17;;;;;;;5.53;2.10;;;;;;;11.16;55.05;101305.03;5068465;28;20052;-74
2023/03/16 11:34:43;;;;;;;4.78;2.17;;;;;;;11.21;52.78;101304.94;5074922;28;20037;-74
2023/03/16 11:37:21;;;;;;;3.28;2.13;;;;;;;11.22;53.37;101294.28;5074545;28;20058;-74
2023/03/16 11:40:08;;;;;;;5.05;2.20;;;;;;;11.32;54.86;101293.22;5074663;28;20036;-72
2023/03/16 11:42:47;;;;;;;5.93;2.05;;;;;;;11.44;53.73;101285.97;5061470;28;20086;-72
2023/03/16 11:45:21;;;;;;;8.23;2.75;;;;;;;11.49;52.33;101289.41;5072972;28;20063;-72